createdAt,value
2022-08-07T00:00:40.094Z,101361.16
2022-08-07T00:03:47.336Z,101361.50
2022-08-07T00:06:52.267Z,101360.25
2022-08-07T00:10:19.152Z,101362.19
2022-08-07T00:13:25.775Z,101353.00
2022-08-07T00:16:30.680Z,101346.94
2022-08-07T00:20:02.773Z,101353.97
2022-08-07T00:22:59.733Z,101347.09
2022-08-07T00:26:18.705Z,101348.69
2022-08-07T00:29:31.352Z,101345.97
2022-08-07T00:32:36.229Z,101339.41
2022-08-07T00:35:40.108Z,101345.06
2022-08-07T00:38:44.152Z,101337.53
2022-08-07T00:42:01.936Z,101342.22
2022-08-07T00:45:10.263Z,101339.53
2022-08-07T00:48:25.121Z,101340.69
2022-08-07T00:51:57.479Z,101344.34
2022-08-07T00:54:58.476Z,101344.88
2022-08-07T00:58:03.580Z,101342.50
2022-08-07T01:01:08.646Z,101327.81
2022-08-07T01:04:21.691Z,101328.59
2022-08-07T01:07:31.135Z,101334.03
2022-08-07T01:10:35.663Z,101329.72
2022-08-07T01:13:40.325Z,101332.47
2022-08-07T01:17:00.203Z,101331.22
2022-08-07T01:20:16.965Z,101323.59
2022-08-07T01:23:25.519Z,101322.66
2022-08-07T01:26:42.731Z,101327.47
2022-08-07T01:29:55.767Z,101330.38
2022-08-07T01:32:59.667Z,101326.41
2022-08-07T01:36:09.472Z,101323.38
2022-08-07T01:39:14.690Z,101327.53
2022-08-07T01:42:39.772Z,101325.56
2022-08-07T01:45:43.610Z,101323.31
2022-08-07T01:48:50.779Z,101331.56
2022-08-07T01:52:03.435Z,101331.75
2022-08-07T01:55:09.606Z,101322.03
2022-08-07T01:58:33.137Z,101337.53
2022-08-07T02:02:02.646Z,101327.16
2022-08-07T02:05:16.154Z,101332.50
2022-08-07T02:08:41.008Z,101334.31
2022-08-07T02:12:03.868Z,101339.09
2022-08-07T02:15:10.287Z,101337.22
2022-08-07T02:18:15.660Z,101338.97
2022-08-07T02:21:23.770Z,101333.91
2022-08-07T02:24:30.287Z,101332.31
2022-08-07T02:27:35.625Z,101333.41
2022-08-07T02:30:46.306Z,101325.59
2022-08-07T02:34:03.931Z,101329.91
2022-08-07T02:37:16.650Z,101332.78
2022-08-07T02:40:30.432Z,101344.13
2022-08-07T02:43:39.494Z,101337.63
2022-08-07T02:46:46.604Z,101335.38
2022-08-07T02:49:59.585Z,101345.91
2022-08-07T02:53:10.982Z,101339.19
2022-08-07T02:56:21.695Z,101334.41
2022-08-07T02:59:27.757Z,101338.22
2022-08-07T03:02:33.783Z,101331.53
2022-08-07T03:05:39.492Z,101339.38
2022-08-07T03:08:44.403Z,101333.59
2022-08-07T03:11:52.243Z,101339.38
2022-08-07T03:15:07.728Z,101331.22
2022-08-07T03:18:17.461Z,101327.09
2022-08-07T03:21:25.251Z,101322.47
2022-08-07T03:24:29.675Z,101325.03
2022-08-07T03:27:59.299Z,101321.50
2022-08-07T03:31:17.922Z,101320.41
2022-08-07T03:34:22.531Z,101317.34
2022-08-07T03:37:32.504Z,101316.88
2022-08-07T03:40:37.356Z,101315.28
2022-08-07T03:43:48.149Z,101319.59
2022-08-07T03:47:13.751Z,101313.06
2022-08-07T03:50:24.945Z,101317.34
2022-08-07T03:54:06.542Z,101311.44
2022-08-07T03:57:03.582Z,101315.91
2022-08-07T04:00:10.592Z,101316.38
2022-08-07T04:03:14.817Z,101321.50
2022-08-07T04:06:38.045Z,101317.81
2022-08-07T04:09:45.563Z,101323.25
2022-08-07T04:12:55.425Z,101322.75
2022-08-07T04:16:00.993Z,101322.13
2022-08-07T04:19:15.256Z,101330.59
2022-08-07T04:22:20.283Z,101326.41
2022-08-07T04:25:29.178Z,101330.09
2022-08-07T04:28:33.459Z,101335.19
2022-08-07T04:32:09.934Z,101329.59
2022-08-07T04:35:06.235Z,101333.78
2022-08-07T04:38:13.179Z,101330.56
2022-08-07T04:41:18.361Z,101332.47
2022-08-07T04:44:24.429Z,101343.31
2022-08-07T04:47:57.065Z,101344.28
2022-08-07T04:51:09.036Z,101343.69
2022-08-07T04:54:22.676Z,101340.50
2022-08-07T04:58:11.259Z,101339.03
2022-08-07T05:01:30.304Z,101341.16
2022-08-07T05:05:02.664Z,101339.53
2022-08-07T05:09:00.591Z,101349.94
2022-08-07T05:12:09.644Z,101360.94
2022-08-07T05:15:26.591Z,101359.00
2022-08-07T05:18:33.908Z,101361.09
2022-08-07T05:22:00.691Z,101356.75
2022-08-07T05:25:08.628Z,101356.91
2022-08-07T05:28:23.440Z,101357.09
2022-08-07T05:31:38.546Z,101355.94
2022-08-07T05:34:44.340Z,101357.38
2022-08-07T05:38:08.364Z,101350.94
2022-08-07T05:41:15.950Z,101364.34
2022-08-07T05:44:29.456Z,101365.59
2022-08-07T05:47:38.170Z,101353.75
2022-08-07T05:51:01.317Z,101367.31
2022-08-07T05:54:13.547Z,101368.84
2022-08-07T05:57:34.603Z,101369.13
2022-08-07T06:00:46.453Z,101359.81
2022-08-07T06:04:00.916Z,101360.72
2022-08-07T06:07:06.105Z,101362.75
2022-08-07T06:10:15.300Z,101366.31
2022-08-07T06:13:20.936Z,101359.66
2022-08-07T06:16:50.565Z,101361.94
2022-08-07T06:20:03.642Z,101357.03
2022-08-07T06:23:25.146Z,101358.00
2022-08-07T06:26:33.475Z,101359.81
2022-08-07T06:29:38.822Z,101360.16
2022-08-07T06:32:43.467Z,101361.53
2022-08-07T06:36:12.002Z,101356.72
2022-08-07T06:40:17.986Z,101366.97
2022-08-07T06:42:39.778Z,101366.44
2022-08-07T06:45:45.525Z,101366.22
2022-08-07T06:48:49.753Z,101367.78
2022-08-07T06:51:59.279Z,101375.63
2022-08-07T06:55:33.828Z,101376.31
2022-08-07T07:00:11.971Z,101367.63
2022-08-07T07:02:15.466Z,101370.91
2022-08-07T07:06:02.762Z,101363.59
2022-08-07T07:09:25.450Z,101359.56
2022-08-07T07:12:48.691Z,101357.47
2022-08-07T07:16:00.490Z,101360.69
2022-08-07T07:19:23.607Z,101367.09
2022-08-07T07:22:36.590Z,101356.88
2022-08-07T07:26:35.183Z,101357.88
2022-08-07T07:29:56.197Z,101358.94
2022-08-07T07:32:56.890Z,101354.66
2022-08-07T07:36:12.644Z,101353.03
2022-08-07T07:39:17.824Z,101341.94
2022-08-07T07:42:32.403Z,101347.28
2022-08-07T07:46:39.852Z,101345.75
2022-08-07T07:49:09.188Z,101339.78
2022-08-07T07:52:30.458Z,101345.19
2022-08-07T07:55:45.720Z,101336.78
2022-08-07T07:59:06.021Z,101342.13
2022-08-07T08:02:11.881Z,101361.34
2022-08-07T08:05:53.889Z,101351.19
2022-08-07T08:09:03.655Z,101341.88
2022-08-07T08:12:09.242Z,101333.28
2022-08-07T08:15:15.819Z,101337.88
2022-08-07T08:18:23.004Z,101337.00
2022-08-07T08:21:58.585Z,101321.75
2022-08-07T08:25:42.315Z,101340.84
2022-08-07T08:28:50.021Z,101347.00
2022-08-07T08:31:58.674Z,101344.56
2022-08-07T08:35:24.151Z,101347.91
2022-08-07T08:38:41.019Z,101343.63
2022-08-07T08:42:01.108Z,101319.69
2022-08-07T08:45:20.969Z,101340.34
2022-08-07T08:48:39.704Z,101328.13
2022-08-07T08:52:14.513Z,101341.22
2022-08-07T08:55:53.204Z,101330.06
2022-08-07T08:59:06.511Z,101338.44
2022-08-07T09:02:37.293Z,101335.50
2022-08-07T09:05:55.708Z,101323.25
2022-08-07T09:09:29.867Z,101319.00
2022-08-07T09:13:09.461Z,101314.47
2022-08-07T09:16:30.643Z,101317.94
2022-08-07T09:19:53.032Z,101310.19
2022-08-07T09:24:30.793Z,101306.66
2022-08-07T09:27:04.595Z,101288.53
2022-08-07T09:30:14.621Z,101293.22
2022-08-07T09:33:56.624Z,101288.66
2022-08-07T09:37:48.310Z,101293.09
2022-08-07T09:41:14.129Z,101285.06
2022-08-07T09:44:58.715Z,101278.97
2022-08-07T09:48:29.981Z,101271.44
2022-08-07T09:52:15.901Z,101278.44
2022-08-07T09:55:29.467Z,101269.41
2022-08-07T09:59:14.979Z,101267.59
2022-08-07T10:02:35.204Z,101262.56
2022-08-07T10:06:24.555Z,101258.50
2022-08-07T10:10:00.851Z,101245.31
2022-08-07T10:14:00.074Z,101247.25
2022-08-07T10:18:02.865Z,101238.66
2022-08-07T10:22:12.633Z,101232.91
2022-08-07T10:25:13.622Z,101227.09
2022-08-07T10:28:35.483Z,101211.63
2022-08-07T10:32:36.870Z,101225.06
2022-08-07T10:36:13.021Z,101212.19
2022-08-07T10:39:57.402Z,101209.28
2022-08-07T10:43:12.296Z,101205.25
2022-08-07T10:46:20.326Z,101206.91
2022-08-07T10:49:49.918Z,101197.81
2022-08-07T10:53:08.060Z,101187.41
2022-08-07T10:56:36.257Z,101182.91
2022-08-07T11:00:05.758Z,101182.84
2022-08-07T11:03:23.910Z,101180.00
2022-08-07T11:06:44.806Z,101172.09
2022-08-07T11:10:09.563Z,101170.44
2022-08-07T11:14:45.197Z,101165.47
2022-08-07T11:17:07.123Z,101161.25
2022-08-07T11:20:35.454Z,101162.44
2022-08-07T11:24:05.713Z,101153.63
2022-08-07T11:27:33.578Z,101154.41
2022-08-07T11:31:02.700Z,101146.97
2022-08-07T11:34:20.640Z,101144.19
2022-08-07T11:38:10.266Z,101147.91
2022-08-07T11:41:30.958Z,101138.06
2022-08-07T11:45:04.601Z,101141.00
2022-08-07T11:49:27.481Z,101138.25
2022-08-07T11:52:29.045Z,101131.25
2022-08-07T11:56:24.861Z,101130.28
2022-08-07T12:00:11.708Z,101121.44
2022-08-07T12:03:04.811Z,101122.50
2022-08-07T12:06:51.610Z,101115.25
2022-08-07T12:10:25.067Z,101114.19
2022-08-07T12:13:47.513Z,101113.50
2022-08-07T12:16:58.066Z,101106.47
2022-08-07T12:20:30.629Z,101095.66
2022-08-07T12:24:06.956Z,101101.97
2022-08-07T12:27:16.030Z,101099.53
2022-08-07T12:30:23.727Z,101096.16
2022-08-07T12:34:01.447Z,101095.31
2022-08-07T12:36:57.682Z,101102.91
2022-08-07T12:40:14.841Z,101080.34
2022-08-07T12:44:02.539Z,101081.88
2022-08-07T12:47:09.773Z,101084.34
2022-08-07T12:50:40.238Z,101077.06
2022-08-07T12:54:24.306Z,101078.25
2022-08-07T12:57:38.720Z,101074.69
2022-08-07T13:01:06.412Z,101066.91
2022-08-07T13:04:37.890Z,101076.03
2022-08-07T13:08:21.324Z,101065.81
2022-08-07T13:12:01.841Z,101060.16
2022-08-07T13:15:23.757Z,101061.47
2022-08-07T13:19:06.107Z,101059.84
2022-08-07T13:22:40.639Z,101050.72
2022-08-07T13:25:54.085Z,101052.84
2022-08-07T13:29:26.731Z,101039.09
2022-08-07T13:33:04.217Z,101042.88
2022-08-07T13:36:17.822Z,101036.25
2022-08-07T13:40:33.924Z,101030.78
2022-08-07T13:43:05.228Z,101027.06
2022-08-07T13:46:24.930Z,101019.34
2022-08-07T13:50:35.435Z,101025.19
2022-08-07T13:53:00.437Z,101014.28
2022-08-07T13:56:06.365Z,101015.91
2022-08-07T13:59:31.448Z,101019.00
2022-08-07T14:02:49.135Z,101014.31
2022-08-07T14:05:57.199Z,101012.69
2022-08-07T14:09:04.742Z,101002.78
2022-08-07T14:12:20.804Z,100998.72
2022-08-07T14:15:35.001Z,101004.44
2022-08-07T14:18:45.843Z,100991.63
2022-08-07T14:22:01.876Z,100996.25
2022-08-07T14:25:13.916Z,100988.78
2022-08-07T14:28:18.870Z,100998.28
2022-08-07T14:31:25.254Z,100996.16
2022-08-07T14:34:49.166Z,100992.41
2022-08-07T14:38:05.794Z,100986.16
2022-08-07T14:41:15.130Z,100985.34
2022-08-07T14:44:20.168Z,100985.50
2022-08-07T14:47:33.734Z,100983.16
2022-08-07T14:50:44.626Z,100982.22
2022-08-07T14:54:30.129Z,100970.81
2022-08-07T14:57:54.501Z,100976.88
2022-08-07T15:00:44.212Z,100967.53
2022-08-07T15:03:53.663Z,100976.88
2022-08-07T15:06:58.349Z,100981.56
2022-08-07T15:10:10.924Z,100965.78
2022-08-07T15:13:25.458Z,100963.13
2022-08-07T15:17:00.756Z,100971.53
2022-08-07T15:20:33.290Z,100964.59
2022-08-07T15:27:05.361Z,100967.13
2022-08-07T15:30:16.525Z,100962.63
2022-08-07T15:33:22.241Z,100952.34
2022-08-07T15:40:11.482Z,100952.88
2022-08-07T15:43:33.253Z,100956.34
2022-08-07T15:50:38.023Z,100944.72
2022-08-07T15:53:52.871Z,100940.63
2022-08-07T15:57:00.630Z,100947.00
2022-08-07T16:00:06.414Z,100937.13
2022-08-07T16:03:22.204Z,100939.06
2022-08-07T16:06:52.487Z,100933.38
2022-08-07T16:10:16.020Z,100919.28
2022-08-07T16:13:58.386Z,100925.13
2022-08-07T16:18:01.816Z,100926.25
2022-08-07T16:21:44.053Z,100928.97
2022-08-07T16:24:52.537Z,100929.13
2022-08-07T16:29:18.246Z,100920.03
2022-08-07T16:31:57.787Z,100930.78
2022-08-07T16:35:58.906Z,100915.75
2022-08-07T16:39:21.046Z,100921.56
2022-08-07T16:42:47.013Z,100915.81
2022-08-07T16:47:02.878Z,100926.84
2022-08-07T16:50:36.247Z,100923.53
2022-08-07T16:54:06.348Z,100927.22
2022-08-07T16:58:02.060Z,100927.44
2022-08-07T17:01:34.563Z,100928.81
2022-08-07T17:05:05.384Z,100920.16
2022-08-07T17:08:10.930Z,100920.50
2022-08-07T17:12:04.625Z,100918.09
2022-08-07T17:15:17.991Z,100924.09
2022-08-07T17:18:46.135Z,100919.94
2022-08-07T17:22:01.698Z,100922.97
2022-08-07T17:25:16.650Z,100926.84
2022-08-07T17:29:04.556Z,100919.09
2022-08-07T17:32:35.150Z,100917.88
2022-08-07T17:35:56.477Z,100926.31
2022-08-07T17:39:17.797Z,100927.09
2022-08-07T17:42:59.361Z,100925.75
2022-08-07T17:46:13.690Z,100926.78
2022-08-07T17:49:24.130Z,100927.59
2022-08-07T17:53:06.047Z,100929.09
2022-08-07T17:56:28.518Z,100925.03
2022-08-07T17:59:41.360Z,100924.94
2022-08-07T18:03:21.866Z,100931.38
2022-08-07T18:06:43.653Z,100921.59
2022-08-07T18:10:05.806Z,100927.22
2022-08-07T18:13:11.730Z,100919.22
2022-08-07T18:16:33.422Z,100931.03
2022-08-07T18:21:12.716Z,100924.06
2022-08-07T18:23:41.888Z,100925.56
2022-08-07T18:26:50.461Z,100929.59
2022-08-07T18:30:32.977Z,100930.03
2022-08-07T18:33:59.885Z,100930.28
2022-08-07T18:38:58.568Z,100944.88
2022-08-07T18:41:09.026Z,100948.72
2022-08-07T18:45:40.218Z,100948.47
2022-08-07T18:50:31.057Z,100948.25
2022-08-07T18:52:34.750Z,100948.25
2022-08-07T18:55:42.985Z,100953.06
2022-08-07T18:59:48.085Z,100955.69
2022-08-07T19:02:56.477Z,100964.78
2022-08-07T19:06:05.604Z,100962.84
2022-08-07T19:09:57.291Z,100969.13
2022-08-07T19:12:53.725Z,100969.41
2022-08-07T19:17:01.526Z,100973.25
2022-08-07T19:19:46.028Z,100976.22
2022-08-07T19:23:18.718Z,100976.94
2022-08-07T19:26:29.425Z,100981.66
2022-08-07T19:31:04.382Z,100986.41
2022-08-07T19:33:08.293Z,100984.34
2022-08-07T19:36:27.777Z,100990.75
2022-08-07T19:39:40.796Z,100988.78
2022-08-07T19:42:59.230Z,100997.16
2022-08-07T19:46:09.265Z,100992.09
2022-08-07T19:49:56.332Z,100995.88
2022-08-07T19:52:45.311Z,100994.53
2022-08-07T19:56:15.148Z,101002.31
2022-08-07T19:59:41.417Z,100996.41
2022-08-07T20:02:52.300Z,101004.59
2022-08-07T20:06:02.168Z,100998.28
2022-08-07T20:09:07.466Z,101001.69
2022-08-07T20:12:35.000Z,101005.28
2022-08-07T20:15:42.273Z,101007.69
2022-08-07T20:18:47.897Z,101010.91
2022-08-07T20:21:52.890Z,101016.28
2022-08-07T20:25:06.060Z,101016.31
2022-08-07T20:28:14.990Z,101022.69
2022-08-07T20:31:21.289Z,101017.38
2022-08-07T20:34:49.307Z,101026.69
2022-08-07T20:37:55.641Z,101032.88
2022-08-07T20:41:05.612Z,101029.13
2022-08-07T20:44:12.799Z,101022.81
2022-08-07T20:47:55.417Z,101026.03
2022-08-07T20:50:46.366Z,101026.81
2022-08-07T20:54:04.481Z,101028.03
2022-08-07T20:57:12.293Z,101025.88
2022-08-07T21:00:22.351Z,101026.09
2022-08-07T21:03:27.622Z,101022.31
2022-08-07T21:06:33.753Z,101020.97
2022-08-07T21:09:51.865Z,101015.22
2022-08-07T21:12:59.554Z,101021.59
2022-08-07T21:16:06.619Z,101016.03
2022-08-07T21:19:13.967Z,101014.69
2022-08-07T21:22:19.891Z,101028.13
2022-08-07T21:25:43.678Z,101026.97
2022-08-07T21:28:52.258Z,101030.56
2022-08-07T21:32:47.133Z,101026.59
2022-08-07T21:36:04.905Z,101022.25
2022-08-07T21:39:47.346Z,101036.94
2022-08-07T21:43:05.396Z,101032.41
2022-08-07T21:46:32.310Z,101032.78
2022-08-07T21:50:00.847Z,101032.00
2022-08-07T21:53:16.227Z,101033.22
2022-08-07T21:56:57.746Z,101031.25
2022-08-07T22:00:25.229Z,101035.00
2022-08-07T22:03:40.064Z,101033.44
2022-08-07T22:06:56.396Z,101031.06
2022-08-07T22:10:06.282Z,101034.66
2022-08-07T22:13:14.387Z,101042.38
2022-08-07T22:16:46.910Z,101045.91
2022-08-07T22:20:07.001Z,101037.03
2022-08-07T22:23:45.024Z,101041.00
2022-08-07T22:27:03.366Z,101046.34
2022-08-07T22:30:19.678Z,101040.22
2022-08-07T22:33:51.026Z,101036.25
2022-08-07T22:37:13.384Z,101038.03
2022-08-07T22:40:33.154Z,101042.38
2022-08-07T22:44:01.484Z,101046.16
2022-08-07T22:47:16.835Z,101036.47
2022-08-07T22:50:33.111Z,101046.38
2022-08-07T22:54:05.592Z,101045.75
2022-08-07T22:57:40.945Z,101041.63
2022-08-07T23:01:11.073Z,101044.59
2022-08-07T23:04:35.796Z,101044.97
2022-08-07T23:07:56.736Z,101034.50
2022-08-07T23:11:24.863Z,101034.88
2022-08-07T23:14:48.389Z,101037.66
2022-08-07T23:18:09.229Z,101045.53
2022-08-07T23:21:29.834Z,101039.81
2022-08-07T23:25:09.068Z,101041.34
2022-08-07T23:28:29.359Z,101035.84
2022-08-07T23:34:19.444Z,101034.84
2022-08-07T23:35:47.113Z,101040.75
2022-08-07T23:39:14.188Z,101042.91
2022-08-07T23:42:30.484Z,101038.94
2022-08-07T23:46:03.690Z,101032.41
2022-08-07T23:49:50.054Z,101034.16
2022-08-07T23:53:08.632Z,101037.13
2022-08-07T23:56:35.096Z,101029.41
